METAR Data
IDs: Format: Raw Decoded Include TAF

Data at: 1923 UTC 26 Sep 2021

KHRO 261853Z AUTO 18008KT 10SM CLR 31/13 A3006 RMK AO2 SLP168 T03060128 $